Time;durP1;ratioP1;P1;durP2;ratioP2;P2;SDS_P1;SDS_P2;PMS_P1;PMS_P2;Temp;Humidity;BMP_temperature;BMP_pressure;BME280_temperature;BME280_humidity;BME280_pressure;Samples;Min_cycle;Max_cycle;Signal;HPM_P1;HPM_P2
2022/12/02 00:01:10;;;;;;;4.40;1.50;;;;;;;;;;1718884;81;21863;-47
2022/12/02 00:03:36;;;;;;;5.10;1.20;;;;;;;;;;1718879;81;21953;-46
2022/12/02 00:06:02;;;;;;;2.70;1.10;;;;;;;;;;1709702;81;21475;-46
2022/12/02 00:08:29;;;;;;;2.80;1.20;;;;;;;;;;1704308;82;21022;-46
2022/12/02 00:10:57;;;;;;;6.07;1.20;;;;;;;;;;1706024;82;21065;-46
2022/12/02 00:13:28;;;;;;;3.83;1.40;;;;;;;;;;1701439;82;21844;-46
2022/12/02 00:15:58;;;;;;;3.50;1.10;;;;;;;;;;1712138;82;21046;-47
2022/12/02 00:18:25;;;;;;;3.97;1.27;;;;;;;;;;1702246;82;21085;-47
2022/12/02 00:20:51;;;;;;;4.53;1.30;;;;;;;;;;1712305;82;21652;-46
2022/12/02 00:23:17;;;;;;;2.50;1.00;;;;;;;;;;1705383;82;21061;-46
2022/12/02 00:25:48;;;;;;;4.47;1.00;;;;;;;;;;1708572;82;22504;-46
2022/12/02 00:28:14;;;;;;;4.40;1.20;;;;;;;;;;1702185;82;21586;-46
2022/12/02 00:30:41;;;;;;;3.07;1.10;;;;;;;;;;1704969;82;21096;-46
2022/12/02 00:33:08;;;;;;;4.03;1.20;;;;;;;;;;1708294;82;21042;-46
2022/12/02 00:35:34;;;;;;;3.97;1.33;;;;;;;;;;1706111;82;22159;-46
2022/12/02 00:38:00;;;;;;;4.90;0.90;;;;;;;;;;1708396;82;21845;-47
2022/12/02 00:40:26;;;;;;;3.83;1.43;;;;;;;;;;1705868;82;21094;-46
2022/12/02 00:42:53;;;;;;;8.40;1.20;;;;;;;;;;1703934;82;21551;-46
2022/12/02 00:48:04;;;;;;;3.77;1.00;;;;;;;;;;1705371;82;21543;-47
2022/12/02 00:50:31;;;;;;;3.50;1.10;;;;;;;;;;1707283;82;22592;-47
2022/12/02 00:52:57;;;;;;;4.13;1.27;;;;;;;;;;1706390;82;21441;-47
2022/12/02 00:55:23;;;;;;;3.30;1.30;;;;;;;;;;1707940;82;21831;-47
2022/12/02 00:57:50;;;;;;;3.50;1.03;;;;;;;;;;1704512;82;21062;-47
2022/12/02 01:00:17;;;;;;;4.67;1.10;;;;;;;;;;1703949;82;21136;-47
2022/12/02 01:02:43;;;;;;;4.30;1.40;;;;;;;;;;1709255;82;21850;-47
2022/12/02 01:05:10;;;;;;;3.40;1.73;;;;;;;;;;1710504;82;21054;-48
2022/12/02 01:07:37;;;;;;;3.73;1.03;;;;;;;;;;1721241;81;21558;-47
2022/12/02 01:10:05;;;;;;;3.47;1.00;;;;;;;;;;1719656;81;21025;-47
2022/12/02 01:12:31;;;;;;;6.43;1.20;;;;;;;;;;1716135;81;21504;-47
2022/12/02 01:14:58;;;;;;;2.83;1.10;;;;;;;;;;1716505;81;21829;-47
2022/12/02 01:17:24;;;;;;;7.13;1.40;;;;;;;;;;1717616;81;21148;-47
2022/12/02 01:19:51;;;;;;;4.07;1.23;;;;;;;;;;1715378;81;21563;-47
2022/12/02 01:22:17;;;;;;;2.73;1.10;;;;;;;;;;1718014;81;21053;-47
2022/12/02 01:24:43;;;;;;;5.40;1.20;;;;;;;;;;1717024;81;21081;-47
2022/12/02 01:27:09;;;;;;;3.13;0.90;;;;;;;;;;1720293;81;21829;-47
2022/12/02 01:29:36;;;;;;;4.47;1.00;;;;;;;;;;1725816;81;21637;-47
2022/12/02 01:32:03;;;;;;;4.00;1.10;;;;;;;;;;1723459;81;21330;-47
2022/12/02 01:34:29;;;;;;;2.57;1.00;;;;;;;;;;1715458;81;21056;-47
2022/12/02 01:36:55;;;;;;;4.97;1.20;;;;;;;;;;1716005;81;21101;-47
2022/12/02 01:39:21;;;;;;;4.03;1.43;;;;;;;;;;1725517;80;22546;-47
2022/12/02 01:41:48;;;;;;;6.73;1.47;;;;;;;;;;1720049;81;21573;-47
2022/12/02 01:44:14;;;;;;;3.00;1.00;;;;;;;;;;1719095;81;21079;-47
2022/12/02 01:46:41;;;;;;;3.90;0.90;;;;;;;;;;1719366;81;21096;-47
2022/12/02 01:49:07;;;;;;;2.60;0.90;;;;;;;;;;1718836;81;21503;-47
2022/12/02 01:51:33;;;;;;;2.73;0.83;;;;;;;;;;1717234;81;21799;-47
2022/12/02 01:53:59;;;;;;;4.10;1.23;;;;;;;;;;1650973;84;21095;-47
2022/12/02 01:56:26;;;;;;;2.87;0.90;;;;;;;;;;1685771;83;21697;-47
2022/12/02 01:58:52;;;;;;;3.30;0.90;;;;;;;;;;1682314;83;21044;-47
2022/12/02 02:01:30;;;;;;;5.63;0.93;;;;;;;;;;1681208;83;21107;-47
2022/12/02 02:03:56;;;;;;;2.83;0.80;;;;;;;;;;1648958;85;21840;-47
2022/12/02 02:06:24;;;;;;;3.97;1.20;;;;;;;;;;1659708;84;21050;-47
2022/12/02 02:08:51;;;;;;;2.03;0.90;;;;;;;;;;1677103;83;21444;-47
2022/12/02 02:11:17;;;;;;;3.07;1.00;;;;;;;;;;1715286;81;21025;-47
2022/12/02 02:13:46;;;;;;;4.73;1.00;;;;;;;;;;1710746;81;21084;-47
2022/12/02 02:16:13;;;;;;;3.30;0.90;;;;;;;;;;1714537;81;21832;-47
2022/12/02 02:18:39;;;;;;;3.17;1.10;;;;;;;;;;1715898;81;21010;-47
2022/12/02 02:21:07;;;;;;;2.90;1.00;;;;;;;;;;1714513;81;21007;-47
2022/12/02 02:23:35;;;;;;;6.70;0.90;;;;;;;;;;1711276;81;21482;-47
2022/12/02 02:26:01;;;;;;;2.87;0.90;;;;;;;;;;1715180;81;21100;-47
2022/12/02 02:28:29;;;;;;;3.20;0.90;;;;;;;;;;1714145;81;21898;-47
2022/12/02 02:30:56;;;;;;;4.00;1.00;;;;;;;;;;1714861;81;21081;-47
2022/12/02 02:33:25;;;;;;;3.50;1.10;;;;;;;;;;1714535;81;21063;-47
2022/12/02 02:37:49;;;;;;;2.13;1.00;;;;;;;;;;1777667;78;27380;-48
2022/12/02 02:40:15;;;;;;;1.77;0.90;;;;;;;;;;1716129;80;21088;-48
2022/12/02 02:42:47;;;;;;;4.03;0.93;;;;;;;;;;1708210;81;21856;-48
2022/12/02 02:45:13;;;;;;;4.50;0.70;;;;;;;;;;1710666;81;21066;-47
2022/12/02 02:47:40;;;;;;;3.30;1.30;;;;;;;;;;1715598;81;21073;-47
2022/12/02 02:50:07;;;;;;;2.87;0.90;;;;;;;;;;1714464;81;21056;-48
2022/12/02 02:52:34;;;;;;;3.10;1.03;;;;;;;;;;1714693;81;22048;-48
2022/12/02 02:55:00;;;;;;;6.60;1.07;;;;;;;;;;1698905;82;21879;-48
2022/12/02 02:57:27;;;;;;;2.90;0.90;;;;;;;;;;1715284;81;21089;-48
2022/12/02 02:59:53;;;;;;;2.83;0.87;;;;;;;;;;1715257;81;21128;-48
2022/12/02 03:02:19;;;;;;;2.40;1.20;;;;;;;;;;1715078;81;21542;-48
2022/12/02 03:04:45;;;;;;;6.90;0.90;;;;;;;;;;1712240;81;21116;-46
2022/12/02 03:07:12;;;;;;;5.03;1.00;;;;;;;;;;1719133;81;21851;-47
2022/12/02 03:09:38;;;;;;;4.40;1.10;;;;;;;;;;1721237;81;21045;-48
2022/12/02 03:12:05;;;;;;;6.30;1.40;;;;;;;;;;1712670;81;21068;-47
2022/12/02 03:14:31;;;;;;;5.00;1.67;;;;;;;;;;1711851;81;22412;-48
2022/12/02 03:16:58;;;;;;;2.00;0.93;;;;;;;;;;1716436;81;21988;-47
2022/12/02 03:19:24;;;;;;;7.23;1.20;;;;;;;;;;1709702;81;21848;-47
2022/12/02 03:21:50;;;;;;;3.33;1.60;;;;;;;;;;1716816;81;21006;-47
2022/12/02 03:24:16;;;;;;;5.70;0.90;;;;;;;;;;1712551;81;21493;-47
2022/12/02 03:26:42;;;;;;;4.17;1.17;;;;;;;;;;1715050;81;21563;-48
2022/12/02 03:29:09;;;;;;;2.53;0.90;;;;;;;;;;1719804;81;21064;-47
2022/12/02 03:31:35;;;;;;;1.40;0.80;;;;;;;;;;1712413;81;22461;-48
2022/12/02 03:34:01;;;;;;;2.87;1.30;;;;;;;;;;1719599;81;21637;-47
2022/12/02 03:36:28;;;;;;;8.70;1.70;;;;;;;;;;1713197;81;21101;-47
2022/12/02 03:38:54;;;;;;;2.87;0.90;;;;;;;;;;1699274;82;21496;-47
2022/12/02 03:41:20;;;;;;;4.93;2.60;;;;;;;;;;1707234;82;21171;-47
2022/12/02 03:43:46;;;;;;;3.87;1.03;;;;;;;;;;1705461;82;21847;-47
2022/12/02 03:46:12;;;;;;;3.03;0.93;;;;;;;;;;1699204;82;21125;-47
2022/12/02 03:48:39;;;;;;;3.33;1.03;;;;;;;;;;1703913;82;20975;-48
2022/12/02 03:51:05;;;;;;;4.47;0.90;;;;;;;;;;1702252;82;21076;-47
2022/12/02 03:53:32;;;;;;;2.27;0.90;;;;;;;;;;1702313;82;21101;-47
2022/12/02 03:56:01;;;;;;;2.67;0.90;;;;;;;;;;1666254;83;21842;-47
2022/12/02 03:58:33;;;;;;;3.70;0.80;;;;;;;;;;1705750;82;21056;-47
2022/12/02 04:01:00;;;;;;;3.97;1.17;;;;;;;;;;1693337;82;21515;-46
2022/12/02 04:03:26;;;;;;;3.13;1.17;;;;;;;;;;1701833;82;21068;-45
2022/12/02 04:05:52;;;;;;;7.20;1.97;;;;;;;;;;1702548;82;21057;-46
2022/12/02 04:08:18;;;;;;;5.43;1.60;;;;;;;;;;1699127;82;21849;-45
2022/12/02 04:10:44;;;;;;;2.20;0.90;;;;;;;;;;1698416;82;21059;-45
2022/12/02 04:13:11;;;;;;;3.23;0.90;;;;;;;;;;1703984;82;21049;-46
2022/12/02 04:15:37;;;;;;;1.80;1.10;;;;;;;;;;1700204;82;21230;-46
2022/12/02 04:18:03;;;;;;;3.10;0.80;;;;;;;;;;1696788;82;21626;-45
2022/12/02 04:20:30;;;;;;;4.50;1.50;;;;;;;;;;1699376;82;22453;-46
2022/12/02 04:22:56;;;;;;;1.60;0.80;;;;;;;;;;1703967;82;21394;-46
2022/12/02 04:25:22;;;;;;;4.60;0.90;;;;;;;;;;1703615;82;21179;-45
2022/12/02 04:27:48;;;;;;;5.00;1.60;;;;;;;;;;1699588;82;21074;-45
2022/12/02 04:30:15;;;;;;;2.83;0.93;;;;;;;;;;1701800;82;21077;-47
2022/12/02 04:32:41;;;;;;;5.27;1.37;;;;;;;;;;1701037;82;21509;-45
2022/12/02 04:35:07;;;;;;;2.80;0.97;;;;;;;;;;1701647;82;21715;-47
2022/12/02 04:37:33;;;;;;;5.17;1.40;;;;;;;;;;1700808;82;21066;-46
2022/12/02 04:40:00;;;;;;;4.33;1.10;;;;;;;;;;1702724;82;21112;-45
2022/12/02 04:42:26;;;;;;;3.13;0.90;;;;;;;;;;1699527;82;21045;-45
2022/12/02 04:44:53;;;;;;;5.57;1.20;;;;;;;;;;1697218;82;23255;-47
2022/12/02 04:47:19;;;;;;;2.97;0.80;;;;;;;;;;1703038;82;21539;-46
2022/12/02 04:49:45;;;;;;;2.27;0.80;;;;;;;;;;1698066;82;21053;-45
2022/12/02 04:52:11;;;;;;;5.73;0.80;;;;;;;;;;1700429;82;21117;-48
2022/12/02 04:54:37;;;;;;;1.80;0.80;;;;;;;;;;1706263;82;21085;-46
2022/12/02 04:57:05;;;;;;;4.70;0.70;;;;;;;;;;1700361;82;21844;-46
2022/12/02 04:59:31;;;;;;;3.27;1.00;;;;;;;;;;1697892;82;21034;-45
2022/12/02 05:01:57;;;;;;;7.13;1.30;;;;;;;;;;1699096;82;21532;-45
2022/12/02 05:04:23;;;;;;;4.37;1.17;;;;;;;;;;1700508;82;21068;-45
2022/12/02 05:06:49;;;;;;;3.37;1.00;;;;;;;;;;1695530;82;21059;-45
2022/12/02 05:09:16;;;;;;;3.03;1.10;;;;;;;;;;1702925;82;23276;-47
2022/12/02 05:11:42;;;;;;;4.47;1.27;;;;;;;;;;1703958;82;21093;-45
2022/12/02 05:14:08;;;;;;;4.27;1.70;;;;;;;;;;1695890;82;21060;-46
2022/12/02 05:16:34;;;;;;;4.60;2.13;;;;;;;;;;1701665;82;21103;-47
2022/12/02 05:19:01;;;;;;;4.13;1.20;;;;;;;;;;1709928;82;21061;-45
2022/12/02 05:21:27;;;;;;;4.57;1.23;;;;;;;;;;1708556;82;24156;-45
2022/12/02 05:25:30;;;;;;;5.30;1.70;;;;;;;;;;1775450;78;27851;-47
2022/12/02 05:27:56;;;;;;;2.83;1.30;;;;;;;;;;1746866;80;21068;-46
2022/12/02 05:30:23;;;;;;;4.67;1.50;;;;;;;;;;1748797;80;21895;-46
2022/12/02 05:32:49;;;;;;;3.87;1.50;;;;;;;;;;1758177;80;21081;-45
2022/12/02 05:35:16;;;;;;;6.70;1.77;;;;;;;;;;1756120;80;21259;-46
2022/12/02 05:37:42;;;;;;;4.43;1.70;;;;;;;;;;1758066;80;21505;-47
2022/12/02 05:40:09;;;;;;;3.63;1.10;;;;;;;;;;1732020;80;21053;-45
2022/12/02 05:42:36;;;;;;;3.70;1.10;;;;;;;;;;1748210;80;21918;-45
2022/12/02 05:45:12;;;;;;;3.40;1.00;;;;;;;;;;1742161;80;21133;-46
2022/12/02 05:47:38;;;;;;;5.80;1.00;;;;;;;;;;1733643;80;21090;-48
2022/12/02 05:50:08;;;;;;;3.00;1.20;;;;;;;;;;1738765;80;21777;-49
2022/12/02 05:52:35;;;;;;;4.50;1.50;;;;;;;;;;1735470;80;21061;-46
2022/12/02 05:55:08;;;;;;;4.27;1.20;;;;;;;;;;1739857;80;21934;-46
2022/12/02 05:57:34;;;;;;;6.47;1.37;;;;;;;;;;1739079;80;21053;-46
2022/12/02 06:00:16;;;;;;;3.43;1.33;;;;;;;;;;1742773;80;21108;-47
2022/12/02 06:02:48;;;;;;;2.87;1.47;;;;;;;;;;1740261;80;21097;-46
2022/12/02 06:05:18;;;;;;;4.97;2.07;;;;;;;;;;1738733;80;21097;-46
2022/12/02 06:07:45;;;;;;;4.00;1.40;;;;;;;;;;1737995;80;21895;-47
2022/12/02 06:10:29;;;;;;;3.97;1.20;;;;;;;;;;1740713;80;21217;-45
2022/12/02 06:12:57;;;;;;;3.20;1.10;;;;;;;;;;1739179;80;21058;-45
2022/12/02 06:15:23;;;;;;;5.87;1.60;;;;;;;;;;1736757;80;21812;-46
2022/12/02 06:17:50;;;;;;;9.63;3.23;;;;;;;;;;1735602;80;21045;-46
2022/12/02 06:20:28;;;;;;;8.93;2.33;;;;;;;;;;1703877;80;21853;-46
2022/12/02 06:22:55;;;;;;;7.03;1.63;;;;;;;;;;1734030;80;21033;-46
2022/12/02 06:25:24;;;;;;;6.80;1.50;;;;;;;;;;1723776;80;21055;-46
2022/12/02 06:27:52;;;;;;;5.43;1.90;;;;;;;;;;1720525;81;21164;-45
2022/12/02 06:30:19;;;;;;;6.10;3.20;;;;;;;;;;1723268;81;21093;-46
2022/12/02 06:32:54;;;;;;;6.57;2.17;;;;;;;;;;1720399;81;23304;-45
2022/12/02 06:35:26;;;;;;;4.13;1.63;;;;;;;;;;1723468;81;21026;-45
2022/12/02 06:37:59;;;;;;;10.57;3.93;;;;;;;;;;1729793;81;21051;-45
2022/12/02 06:40:31;;;;;;;15.83;3.02;;;;;;;;;;1722143;81;21081;-45
2022/12/02 06:45:42;;;;;;;7.10;2.40;;;;;;;;;;1793117;77;27395;-46
2022/12/02 06:48:26;;;;;;;7.63;2.90;;;;;;;;;;1772947;78;21021;-46
2022/12/02 06:50:52;;;;;;;9.08;2.65;;;;;;;;;;1775708;78;21861;-46
2022/12/02 06:53:24;;;;;;;11.33;2.77;;;;;;;;;;1774640;78;21045;-46
2022/12/02 06:55:53;;;;;;;7.90;2.40;;;;;;;;;;1765672;78;21105;-45
2022/12/02 06:58:45;;;;;;;13.43;1.87;;;;;;;;;;1770059;79;21539;-45
2022/12/02 07:01:14;;;;;;;5.43;2.50;;;;;;;;;;1776658;78;21138;-46
2022/12/02 07:03:46;;;;;;;6.70;2.70;;;;;;;;;;1770645;78;21738;-46
2022/12/02 07:06:22;;;;;;;5.47;2.03;;;;;;;;;;1772509;78;21618;-46
2022/12/02 07:08:48;;;;;;;6.07;2.47;;;;;;;;;;1773496;78;21572;-46
2022/12/02 07:11:48;;;;;;;6.53;3.10;;;;;;;;;;1776080;78;21041;-46
2022/12/02 07:13:51;;;;;;;12.87;4.13;;;;;;;;;;1765400;78;21120;-48
2022/12/02 07:16:30;;;;;;;27.93;8.97;;;;;;;;;;1773088;78;21766;-46
2022/12/02 07:18:56;;;;;;;16.67;5.73;;;;;;;;;;1749504;80;21119;-46
2022/12/02 07:21:23;;;;;;;8.87;2.60;;;;;;;;;;1720171;79;21559;-46
2022/12/02 07:23:49;;;;;;;5.73;2.10;;;;;;;;;;1769166;79;21561;-46
2022/12/02 07:26:15;;;;;;;7.63;2.30;;;;;;;;;;1773662;78;21093;-46
2022/12/02 07:28:42;;;;;;;7.37;2.57;;;;;;;;;;1771183;78;21965;-46
2022/12/02 07:31:22;;;;;;;8.17;2.17;;;;;;;;;;1768003;78;21623;-46
2022/12/02 07:33:48;;;;;;;4.93;1.93;;;;;;;;;;1766194;78;21069;-46
2022/12/02 07:36:14;;;;;;;14.40;4.07;;;;;;;;;;1768632;78;21084;-46
2022/12/02 07:38:41;;;;;;;12.30;3.30;;;;;;;;;;1764821;79;21052;-46
2022/12/02 07:41:07;;;;;;;14.30;3.30;;;;;;;;;;1769393;79;22540;-46
2022/12/02 07:43:33;;;;;;;13.17;4.03;;;;;;;;;;1771855;79;21095;-46
2022/12/02 07:45:59;;;;;;;8.47;2.87;;;;;;;;;;1750796;79;21085;-46
2022/12/02 07:48:25;;;;;;;13.73;4.47;;;;;;;;;;1753351;79;21633;-46
2022/12/02 07:50:51;;;;;;;12.13;3.60;;;;;;;;;;1760408;79;21065;-46
2022/12/02 07:53:18;;;;;;;9.67;4.43;;;;;;;;;;1758785;79;22965;-46
2022/12/02 07:55:44;;;;;;;9.93;3.77;;;;;;;;;;1750671;79;21504;-46
2022/12/02 07:58:10;;;;;;;8.97;3.53;;;;;;;;;;1755963;79;21697;-46
2022/12/02 08:00:36;;;;;;;8.00;3.10;;;;;;;;;;1751865;79;21074;-46
2022/12/02 08:03:03;;;;;;;7.73;2.67;;;;;;;;;;1755729;79;21058;-46
2022/12/02 08:05:29;;;;;;;6.10;2.10;;;;;;;;;;1748012;79;21948;-46
2022/12/02 08:07:55;;;;;;;6.70;2.30;;;;;;;;;;1756337;79;21100;-46
2022/12/02 08:10:21;;;;;;;5.17;1.57;;;;;;;;;;1752542;79;21046;-46
2022/12/02 08:12:48;;;;;;;3.50;1.57;;;;;;;;;;1748670;79;21449;-46
2022/12/02 08:15:14;;;;;;;6.37;2.90;;;;;;;;;;1754465;79;21085;-47
2022/12/02 08:17:41;;;;;;;6.93;2.83;;;;;;;;;;1754000;79;23061;-46
2022/12/02 08:20:10;;;;;;;8.40;3.47;;;;;;;;;;1750508;79;21043;-46
2022/12/02 08:22:36;;;;;;;5.53;2.10;;;;;;;;;;1753030;79;21236;-46
2022/12/02 08:25:03;;;;;;;5.93;1.80;;;;;;;;;;1756028;79;21578;-46
2022/12/02 08:27:29;;;;;;;6.00;1.67;;;;;;;;;;1752261;79;21034;-46
2022/12/02 08:29:55;;;;;;;3.90;1.40;;;;;;;;;;1754138;79;23044;-46
2022/12/02 08:32:23;;;;;;;5.00;1.73;;;;;;;;;;1748952;79;21376;-47
2022/12/02 08:34:49;;;;;;;7.40;2.17;;;;;;;;;;1754268;79;21530;-46
2022/12/02 08:37:16;;;;;;;8.00;2.93;;;;;;;;;;1753259;79;21284;-46
2022/12/02 08:39:42;;;;;;;4.27;1.80;;;;;;;;;;1750371;79;21070;-46
2022/12/02 08:42:08;;;;;;;4.23;1.53;;;;;;;;;;1753665;79;21798;-46
2022/12/02 08:44:34;;;;;;;4.83;1.40;;;;;;;;;;1751745;79;21057;-46
2022/12/02 08:47:01;;;;;;;6.77;1.73;;;;;;;;;;1755126;79;21646;-46
2022/12/02 08:49:27;;;;;;;5.10;2.10;;;;;;;;;;1751304;79;21166;-47
2022/12/02 08:51:53;;;;;;;6.07;3.63;;;;;;;;;;1754856;79;21090;-47
2022/12/02 08:54:19;;;;;;;4.27;2.33;;;;;;;;;;1756065;79;21837;-46
2022/12/02 08:56:46;;;;;;;4.03;1.80;;;;;;;;;;1763177;79;21052;-47
2022/12/02 08:59:12;;;;;;;2.90;1.10;;;;;;;;;;1752806;79;21073;-47
2022/12/02 09:01:38;;;;;;;4.30;1.63;;;;;;;;;;1755767;79;21089;-47
2022/12/02 09:04:04;;;;;;;3.67;1.40;;;;;;;;;;1754271;79;21740;-48
2022/12/02 09:06:31;;;;;;;5.87;1.43;;;;;;;;;;1751623;79;21816;-47
2022/12/02 09:08:57;;;;;;;6.20;2.27;;;;;;;;;;1751199;79;21895;-48
2022/12/02 09:11:23;;;;;;;7.07;2.00;;;;;;;;;;1755002;79;21456;-48
2022/12/02 09:13:49;;;;;;;3.57;1.37;;;;;;;;;;1762659;79;21076;-46
2022/12/02 09:16:15;;;;;;;5.30;1.20;;;;;;;;;;1755572;79;21557;-46
2022/12/02 09:18:41;;;;;;;2.93;1.20;;;;;;;;;;1751934;79;21876;-46
2022/12/02 09:21:08;;;;;;;4.17;1.17;;;;;;;;;;1753449;79;21077;-46
2022/12/02 09:23:35;;;;;;;6.87;1.53;;;;;;;;;;1753290;79;21033;-47
2022/12/02 09:26:01;;;;;;;2.90;1.00;;;;;;;;;;1752580;79;21086;-46
2022/12/02 09:28:27;;;;;;;4.13;0.90;;;;;;;;;;1752631;79;21030;-46
2022/12/02 09:30:53;;;;;;;1.50;0.80;;;;;;;;;;1758999;79;21841;-46
2022/12/02 09:33:19;;;;;;;1.87;0.80;;;;;;;;;;1752457;79;21034;-46
2022/12/02 09:35:45;;;;;;;4.07;1.07;;;;;;;;;;1751934;79;21191;-46
2022/12/02 09:38:12;;;;;;;1.37;0.80;;;;;;;;;;1753258;79;21061;-47
2022/12/02 09:40:38;;;;;;;2.60;0.80;;;;;;;;;;1753493;79;21063;-47
2022/12/02 09:43:04;;;;;;;3.27;0.80;;;;;;;;;;1756358;79;21816;-47
2022/12/02 09:45:30;;;;;;;2.30;0.80;;;;;;;;;;1753887;79;21042;-47
2022/12/02 09:47:57;;;;;;;1.17;0.60;;;;;;;;;;1751267;79;21037;-46
2022/12/02 09:50:24;;;;;;;1.87;0.77;;;;;;;;;;1765227;79;21018;-46
2022/12/02 09:52:50;;;;;;;2.30;0.70;;;;;;;;;;1760650;79;21485;-47
2022/12/02 09:55:17;;;;;;;1.70;0.97;;;;;;;;;;1754956;79;21923;-46
2022/12/02 09:57:44;;;;;;;2.33;0.90;;;;;;;;;;1755259;79;21540;-48
2022/12/02 10:00:20;;;;;;;2.23;0.80;;;;;;;;;;1751350;79;21042;-46
2022/12/02 10:02:50;;;;;;;6.60;1.07;;;;;;;;;;1754409;79;21053;-47
2022/12/02 10:05:22;;;;;;;4.13;1.10;;;;;;;;;;1758137;79;21511;-46
2022/12/02 10:07:49;;;;;;;4.30;0.90;;;;;;;;;;1755816;79;21812;-46
2022/12/02 10:10:18;;;;;;;3.10;1.07;;;;;;;;;;1756349;79;21097;-47
2022/12/02 10:12:44;;;;;;;3.40;1.10;;;;;;;;;;1760994;79;21049;-47
2022/12/02 10:15:24;;;;;;;2.40;1.13;;;;;;;;;;1763594;79;21053;-47
2022/12/02 10:17:50;;;;;;;5.13;1.20;;;;;;;;;;1749039;79;21022;-47
2022/12/02 10:20:19;;;;;;;3.20;1.20;;;;;;;;;;1762952;79;21833;-47
2022/12/02 10:23:12;;;;;;;4.50;1.77;;;;;;;;;;1745617;79;21659;-47
2022/12/02 10:25:45;;;;;;;4.50;1.20;;;;;;;;;;1767940;79;21029;-47
2022/12/02 10:28:29;;;;;;;7.13;1.50;;;;;;;;;;1761762;79;21516;-47
2022/12/02 10:31:04;;;;;;;3.58;1.37;;;;;;;;;;1755028;79;21006;-46
2022/12/02 10:33:32;;;;;;;6.10;1.70;;;;;;;;;;1728711;79;21843;-46
2022/12/02 10:35:59;;;;;;;3.73;1.00;;;;;;;;;;1753903;79;21045;-47
2022/12/02 10:38:35;;;;;;;5.43;1.50;;;;;;;;;;1758692;79;21073;-47
2022/12/02 10:41:16;;;;;;;2.60;1.10;;;;;;;;;;1760065;79;21144;-48
2022/12/02 10:43:54;;;;;;;4.87;1.10;;;;;;;;;;1755194;79;21061;-46
2022/12/02 10:46:21;;;;;;;3.60;1.30;;;;;;;;;;1756030;79;21690;-47
2022/12/02 10:48:48;;;;;;;3.47;0.90;;;;;;;;;;1758212;79;21050;-46
2022/12/02 10:51:16;;;;;;;4.57;1.23;;;;;;;;;;1753271;79;21062;-47
2022/12/02 10:53:44;;;;;;;3.03;1.60;;;;;;;;;;1706035;80;21471;-46
2022/12/02 10:56:16;;;;;;;6.40;1.30;;;;;;;;;;1764285;79;21038;-46
2022/12/02 10:58:46;;;;;;;6.00;1.13;;;;;;;;;;1713501;79;21770;-47
2022/12/02 11:03:24;;;;;;;3.47;1.17;;;;;;;;;;1772064;78;27812;-48
2022/12/02 11:05:51;;;;;;;4.60;1.33;;;;;;;;;;1769727;78;21054;-47
2022/12/02 11:08:19;;;;;;;3.23;1.03;;;;;;;;;;1784922;78;21783;-47
2022/12/02 11:10:48;;;;;;;7.13;1.67;;;;;;;;;;1782678;78;21115;-47
2022/12/02 11:13:18;;;;;;;4.57;1.33;;;;;;;;;;1769462;78;21069;-47
2022/12/02 11:15:51;;;;;;;2.77;1.20;;;;;;;;;;1782420;78;21698;-47
2022/12/02 11:18:27;;;;;;;2.70;1.10;;;;;;;;;;1778048;78;21622;-47
2022/12/02 11:21:02;;;;;;;2.90;1.30;;;;;;;;;;1769272;78;21929;-46
2022/12/02 11:23:29;;;;;;;2.55;1.22;;;;;;;;;;1770996;78;21654;-46
2022/12/02 11:26:00;;;;;;;3.73;1.10;;;;;;;;;;1769767;78;21022;-46
2022/12/02 11:28:30;;;;;;;2.10;1.07;;;;;;;;;;1779984;78;21051;-46
2022/12/02 11:31:15;;;;;;;4.00;1.30;;;;;;;;;;1777883;78;21045;-46
2022/12/02 11:33:53;;;;;;;2.13;1.10;;;;;;;;;;1766577;78;22694;-46
2022/12/02 11:36:25;;;;;;;7.17;3.00;;;;;;;;;;1769414;78;21054;-46
2022/12/02 11:38:55;;;;;;;9.17;2.20;;;;;;;;;;1772367;78;22539;-45
2022/12/02 11:41:25;;;;;;;7.03;2.30;;;;;;;;;;1757843;79;21570;-46
2022/12/02 11:44:00;;;;;;;7.97;3.07;;;;;;;;;;1757462;79;21045;-46
2022/12/02 11:46:40;;;;;;;10.20;2.50;;;;;;;;;;1758330;79;21873;-46
2022/12/02 11:49:34;;;;;;;5.67;2.43;;;;;;;;;;1760737;79;21140;-46
2022/12/02 11:52:12;;;;;;;2.77;1.40;;;;;;;;;;1756770;79;21361;-45
2022/12/02 11:54:41;;;;;;;5.93;2.63;;;;;;;;;;1758198;79;21100;-46
2022/12/02 11:57:19;;;;;;;4.63;2.00;;;;;;;;;;1756093;79;21502;-46
2022/12/02 11:59:45;;;;;;;3.87;1.47;;;;;;;;;;1761700;79;22553;-46
2022/12/02 12:02:14;;;;;;;4.93;1.67;;;;;;;;;;1753125;79;21644;-46
2022/12/02 12:04:41;;;;;;;3.90;1.30;;;;;;;;;;1742094;79;21082;-46
2022/12/02 12:07:07;;;;;;;3.77;1.40;;;;;;;;;;1750724;79;21059;-46
2022/12/02 12:09:33;;;;;;;5.30;2.00;;;;;;;;;;1744644;79;21042;-46
2022/12/02 12:12:15;;;;;;;7.27;2.27;;;;;;;;;;1747528;79;21818;-46
2022/12/02 12:15:02;;;;;;;4.60;2.03;;;;;;;;;;1739816;79;21038;-46
2022/12/02 12:17:33;;;;;;;7.20;1.50;;;;;;;;;;1740567;79;21146;-46
2022/12/02 12:19:59;;;;;;;4.70;1.33;;;;;;;;;;1743346;79;21038;-46
2022/12/02 12:22:27;;;;;;;8.00;2.23;;;;;;;;;;1743358;79;21433;-45
2022/12/02 12:24:53;;;;;;;7.90;2.30;;;;;;;;;;1749671;79;23029;-46
2022/12/02 12:27:35;;;;;;;4.20;1.03;;;;;;;;;;1742492;79;21689;-46
2022/12/02 12:30:01;;;;;;;3.70;1.70;;;;;;;;;;1749110;79;21083;-46
2022/12/02 12:32:28;;;;;;;4.10;1.73;;;;;;;;;;1745776;79;21042;-46
2022/12/02 12:34:54;;;;;;;2.80;1.50;;;;;;;;;;1742005;79;21133;-46
2022/12/02 12:37:20;;;;;;;5.87;1.73;;;;;;;;;;1744758;79;23003;-46
2022/12/02 12:39:46;;;;;;;6.30;1.73;;;;;;;;;;1746124;79;21045;-46
2022/12/02 12:42:13;;;;;;;8.20;2.13;;;;;;;;;;1745109;79;21004;-46
2022/12/02 12:44:39;;;;;;;10.97;4.00;;;;;;;;;;1754086;79;21512;-46
2022/12/02 12:47:05;;;;;;;5.90;2.40;;;;;;;;;;1752376;79;21121;-46
2022/12/02 12:49:32;;;;;;;6.97;3.63;;;;;;;;;;1755060;79;23198;-46
2022/12/02 12:51:59;;;;;;;9.30;3.77;;;;;;;;;;1747312;79;21035;-46
2022/12/02 12:54:25;;;;;;;12.27;3.03;;;;;;;;;;1740111;79;21532;-46
2022/12/02 12:56:52;;;;;;;8.07;2.73;;;;;;;;;;1742188;79;21101;-46
2022/12/02 12:59:18;;;;;;;11.50;3.40;;;;;;;;;;1748360;79;21089;-46
2022/12/02 13:01:44;;;;;;;8.57;2.73;;;;;;;;;;1744962;79;21843;-46
2022/12/02 13:04:10;;;;;;;11.87;3.47;;;;;;;;;;1743934;79;21069;-46
2022/12/02 13:06:38;;;;;;;9.53;3.23;;;;;;;;;;1746297;79;21077;-46
2022/12/02 13:09:04;;;;;;;13.93;3.47;;;;;;;;;;1748652;79;21033;-46
2022/12/02 13:11:31;;;;;;;9.40;3.67;;;;;;;;;;1751958;79;21529;-46
2022/12/02 13:13:57;;;;;;;6.87;2.60;;;;;;;;;;1756113;79;21777;-46
2022/12/02 13:16:24;;;;;;;10.83;4.17;;;;;;;;;;1748966;79;21026;-46
2022/12/02 13:18:51;;;;;;;15.47;5.03;;;;;;;;;;1751812;79;21003;-46
2022/12/02 13:21:18;;;;;;;19.63;6.87;;;;;;;;;;1744312;79;21539;-46
2022/12/02 13:23:44;;;;;;;14.07;4.77;;;;;;;;;;1744381;79;21538;-46
2022/12/02 13:28:51;;;;;;;14.20;3.37;;;;;;;;;;1873951;75;27458;-45
2022/12/02 13:31:17;;;;;;;14.73;4.30;;;;;;;;;;1848862;76;21139;-48
2022/12/02 13:33:43;;;;;;;9.97;3.17;;;;;;;;;;1845266;76;21726;-47
2022/12/02 13:36:11;;;;;;;13.27;4.73;;;;;;;;;;1851161;75;21051;-48
2022/12/02 13:38:37;;;;;;;11.03;3.03;;;;;;;;;;1847037;76;21036;-47
2022/12/02 13:41:04;;;;;;;10.63;3.20;;;;;;;;;;1856367;76;21083;-48
2022/12/02 13:43:30;;;;;;;8.70;2.80;;;;;;;;;;1850779;76;21030;-48
2022/12/02 13:45:56;;;;;;;12.70;4.40;;;;;;;;;;1853192;76;21741;-48
2022/12/02 13:48:24;;;;;;;11.47;3.53;;;;;;;;;;1853316;76;21554;-48
2022/12/02 13:50:51;;;;;;;8.73;2.87;;;;;;;;;;1854632;75;21075;-47
2022/12/02 13:53:17;;;;;;;11.70;3.50;;;;;;;;;;1849758;75;21490;-48
2022/12/02 13:55:43;;;;;;;16.17;5.30;;;;;;;;;;1855558;76;21091;-47
2022/12/02 13:58:11;;;;;;;20.07;6.10;;;;;;;;;;1855355;76;21911;-47
2022/12/02 14:00:37;;;;;;;34.10;11.30;;;;;;;;;;1852463;75;21033;-47
2022/12/02 14:03:04;;;;;;;12.50;3.13;;;;;;;;;;1851466;76;21012;-47
2022/12/02 14:05:30;;;;;;;9.97;3.23;;;;;;;;;;1853689;75;21180;-47
2022/12/02 14:07:56;;;;;;;12.80;3.23;;;;;;;;;;1853505;75;21076;-47
2022/12/02 14:10:23;;;;;;;9.63;3.37;;;;;;;;;;1855838;76;21800;-47
2022/12/02 14:12:49;;;;;;;8.60;3.27;;;;;;;;;;1852978;76;21045;-47
2022/12/02 14:15:15;;;;;;;13.83;5.47;;;;;;;;;;1850477;76;20997;-48
2022/12/02 14:17:41;;;;;;;11.90;3.70;;;;;;;;;;1853295;75;21013;-47
2022/12/02 14:20:08;;;;;;;15.47;3.67;;;;;;;;;;1852388;75;21071;-47
2022/12/02 14:22:35;;;;;;;15.63;5.67;;;;;;;;;;1853574;75;21976;-47
2022/12/02 14:25:02;;;;;;;12.07;4.30;;;;;;;;;;1851665;75;21014;-47
2022/12/02 14:27:29;;;;;;;10.67;3.20;;;;;;;;;;1849550;75;21025;-48
2022/12/02 14:29:55;;;;;;;16.93;5.87;;;;;;;;;;1852744;76;21036;-47
2022/12/02 14:32:21;;;;;;;18.57;6.83;;;;;;;;;;1852891;75;21099;-47
2022/12/02 14:34:48;;;;;;;24.43;11.60;;;;;;;;;;1856712;76;21821;-47
2022/12/02 14:37:14;;;;;;;15.10;7.33;;;;;;;;;;1852409;76;21004;-47
2022/12/02 14:39:40;;;;;;;19.43;10.10;;;;;;;;;;1849308;76;21071;-47
2022/12/02 14:42:06;;;;;;;17.93;7.80;;;;;;;;;;1846995;75;21385;-47
2022/12/02 14:44:33;;;;;;;10.17;4.90;;;;;;;;;;1852111;76;21090;-47
2022/12/02 14:46:59;;;;;;;16.73;6.17;;;;;;;;;;1852063;75;21893;-47
2022/12/02 14:49:25;;;;;;;42.27;14.87;;;;;;;;;;1849439;75;21045;-50
2022/12/02 14:54:21;;;;;;;35.90;11.33;;;;;;;;;;1760298;77;70785;-77
2022/12/02 14:56:48;;;;;;;25.70;9.30;;;;;;;;;;1719944;81;21064;-77
2022/12/02 14:59:14;;;;;;;26.13;9.53;;;;;;;;;;1728734;81;21819;-78
2022/12/02 15:01:41;;;;;;;30.00;10.50;;;;;;;;;;1724368;81;21053;-77